Speed, Indiana
Current Conditions -  °F | °C
As of 2:53 PM on Thursday 30 Oct 2014 (Local Time) from KLOU Reporting Station
Clear Clear  
Wind Chill: 13°   Ceiling: Unl
Heat Index: 13°   Visibility: 10mi
Dew Point:   Wind: 3mph
Humidity: 47%   Direction: 300°WNW
Pressure: 30.1"   Gusts: NA
Location:  38.3931°N, 85.7713°W
Report Text: KLOU 301853Z 30003KT 10SM CLR 13/02 A3010 RMK AO2 SLP194 T01280017
Loading
Personal Weather Stations






























Interactive Weather Map
Tropical Storm Tracking
New forecast layout! Learn more

10-Day Weather Forecast

Advertisements
Track Severe Weather on mobile